Time;durP1;ratioP1;P1;durP2;ratioP2;P2;SDS_P1;SDS_P2;PMS_P1;PMS_P2;Temp;Humidity;BMP_temperature;BMP_pressure;BME280_temperature;BME280_humidity;BME280_pressure;Samples;Min_cycle;Max_cycle;Signal;HPM_P1;HPM_P2
2021/10/30 00:01:54;;;;;;;;;;;22.80;41.20;;;;;;1554915;75;750;-58
2021/10/30 00:03:55;;;;;;;;;;;22.80;41.20;;;;;;1552567;75;695;-58
2021/10/30 00:05:57;;;;;;;;;;;22.80;41.20;;;;;;1551371;75;1947;-57
2021/10/30 00:07:59;;;;;;;;;;;22.90;41.30;;;;;;1556560;75;746;-60
2021/10/30 00:10:01;;;;;;;;;;;22.80;41.20;;;;;;1575746;75;734;-59
2021/10/30 00:12:03;;;;;;;;;;;22.90;41.40;;;;;;1555053;75;794;-59
2021/10/30 00:14:05;;;;;;;;;;;22.90;41.40;;;;;;1564938;75;751;-59
2021/10/30 00:16:07;;;;;;;;;;;22.80;41.30;;;;;;1563759;75;1159;-58
2021/10/30 00:18:09;;;;;;;;;;;22.80;41.30;;;;;;1556164;74;753;-58
2021/10/30 00:20:11;;;;;;;;;;;22.90;41.40;;;;;;1572086;74;758;-58
2021/10/30 00:22:13;;;;;;;;;;;22.80;41.30;;;;;;1555677;75;689;-59
2021/10/30 00:24:15;;;;;;;;;;;22.90;41.40;;;;;;1572823;75;708;-57
2021/10/30 00:26:17;;;;;;;;;;;22.80;41.30;;;;;;1562275;75;1950;-58
2021/10/30 00:28:19;;;;;;;;;;;22.90;41.40;;;;;;1558774;74;758;-58
2021/10/30 00:30:21;;;;;;;;;;;22.90;41.40;;;;;;1573630;75;812;-59
2021/10/30 00:32:23;;;;;;;;;;;22.90;41.40;;;;;;1551247;75;763;-59
2021/10/30 00:34:24;;;;;;;;;;;22.90;41.30;;;;;;1554194;75;692;-60
2021/10/30 00:36:26;;;;;;;;;;;22.90;41.30;;;;;;1561721;75;1085;-60
2021/10/30 00:38:28;;;;;;;;;;;22.90;41.30;;;;;;1555486;75;817;-60
2021/10/30 00:40:30;;;;;;;;;;;22.90;41.50;;;;;;1549843;75;654;-58
2021/10/30 00:42:32;;;;;;;;;;;22.90;41.40;;;;;;1556584;75;666;-57
2021/10/30 00:44:34;;;;;;;;;;;23.00;41.40;;;;;;1569162;75;763;-56
2021/10/30 00:46:36;;;;;;;;;;;22.90;41.40;;;;;;1560029;74;1951;-59
2021/10/30 00:48:38;;;;;;;;;;;23.00;41.40;;;;;;1569629;74;1099;-58
2021/10/30 00:50:40;;;;;;;;;;;22.90;41.40;;;;;;1566944;75;797;-57
2021/10/30 00:52:42;;;;;;;;;;;23.00;41.50;;;;;;1568612;74;741;-60
2021/10/30 00:54:44;;;;;;;;;;;22.90;41.50;;;;;;1570665;75;1161;-60
2021/10/30 00:56:46;;;;;;;;;;;22.90;41.70;;;;;;1572100;74;767;-61
2021/10/30 00:58:48;;;;;;;;;;;23.00;41.70;;;;;;1560744;74;824;-60
2021/10/30 01:00:50;;;;;;;;;;;22.90;41.60;;;;;;1561064;75;802;-60
2021/10/30 01:02:52;;;;;;;;;;;22.90;41.70;;;;;;1560516;74;723;-60
2021/10/30 01:04:54;;;;;;;;;;;23.00;41.70;;;;;;1566896;74;1147;-63
2021/10/30 01:06:56;;;;;;;;;;;23.00;41.90;;;;;;1573466;74;1940;-60
2021/10/30 01:08:58;;;;;;;;;;;22.90;41.80;;;;;;1565873;75;736;-61
2021/10/30 01:11:00;;;;;;;;;;;22.90;41.80;;;;;;1562073;75;716;-61
2021/10/30 01:13:02;;;;;;;;;;;22.90;42.00;;;;;;1560458;75;670;-61
2021/10/30 01:15:05;;;;;;;;;;;22.90;42.00;;;;;;1576031;74;1126;-61
2021/10/30 01:17:07;;;;;;;;;;;23.00;42.10;;;;;;1577696;75;756;-60
2021/10/30 01:19:09;;;;;;;;;;;22.90;42.10;;;;;;1588007;75;772;-61
2021/10/30 01:21:11;;;;;;;;;;;22.90;42.10;;;;;;1561928;75;784;-60
2021/10/30 01:23:13;;;;;;;;;;;22.90;42.20;;;;;;1561485;74;688;-61
2021/10/30 01:25:15;;;;;;;;;;;22.90;42.20;;;;;;1564769;74;1152;-62
2021/10/30 01:27:17;;;;;;;;;;;22.90;42.20;;;;;;1554104;75;1917;-62
2021/10/30 01:29:19;;;;;;;;;;;23.00;42.20;;;;;;1560517;74;740;-61
2021/10/30 01:31:21;;;;;;;;;;;22.90;42.20;;;;;;1568485;75;747;-61
2021/10/30 01:33:23;;;;;;;;;;;23.00;42.20;;;;;;1561992;74;818;-60
2021/10/30 01:35:30;;;;;;;;;;;22.90;42.20;;;;;;1575063;74;1133;-60
2021/10/30 01:37:32;;;;;;;;;;;22.90;42.20;;;;;;1564509;74;1797;-60
2021/10/30 01:39:34;;;;;;;;;;;22.90;42.20;;;;;;1568528;74;741;-60
2021/10/30 01:41:36;;;;;;;;;;;23.00;42.30;;;;;;1560682;75;817;-62
2021/10/30 01:43:38;;;;;;;;;;;22.90;42.20;;;;;;1563459;74;762;-61
2021/10/30 01:45:40;;;;;;;;;;;22.90;42.20;;;;;;1577662;74;1153;-58
2021/10/30 01:47:42;;;;;;;;;;;23.00;42.10;;;;;;1566798;74;1930;-60
2021/10/30 01:49:44;;;;;;;;;;;23.00;42.10;;;;;;1567893;75;632;-60
2021/10/30 01:51:46;;;;;;;;;;;23.00;42.00;;;;;;1554012;75;884;-58
2021/10/30 01:53:48;;;;;;;;;;;23.00;42.00;;;;;;1573196;75;746;-59
2021/10/30 01:55:50;;;;;;;;;;;23.00;42.10;;;;;;1563371;75;1188;-60
2021/10/30 01:57:52;;;;;;;;;;;22.90;42.10;;;;;;1565417;74;795;-60
2021/10/30 01:59:54;;;;;;;;;;;22.90;42.10;;;;;;1560423;75;807;-60
2021/10/30 02:01:56;;;;;;;;;;;23.00;42.10;;;;;;1554335;75;783;-59
2021/10/30 02:03:57;;;;;;;;;;;22.90;42.10;;;;;;1558127;75;713;-59
2021/10/30 02:05:59;;;;;;;;;;;22.90;42.30;;;;;;1551789;75;1144;-59
2021/10/30 02:08:01;;;;;;;;;;;22.90;42.10;;;;;;1561364;75;1931;-60
2021/10/30 02:10:04;;;;;;;;;;;22.90;42.20;;;;;;1565695;75;815;-59
2021/10/30 02:12:06;;;;;;;;;;;22.90;42.30;;;;;;1562506;75;704;-59
2021/10/30 02:14:08;;;;;;;;;;;22.90;42.20;;;;;;1557201;75;740;-59
2021/10/30 02:16:12;;;;;;;;;;;22.90;42.10;;;;;;1565734;75;1152;-59
2021/10/30 02:18:14;;;;;;;;;;;22.90;42.20;;;;;;1568638;72;218152;-64
2021/10/30 02:20:16;;;;;;;;;;;22.90;42.20;;;;;;1572314;74;705;-66
2021/10/30 02:22:18;;;;;;;;;;;22.90;42.10;;;;;;1583177;74;745;-64
2021/10/30 02:24:20;;;;;;;;;;;22.90;42.20;;;;;;1589178;74;799;-64
2021/10/30 02:26:22;;;;;;;;;;;22.90;42.20;;;;;;1583413;74;801;-64
2021/10/30 02:28:23;;;;;;;;;;;22.90;42.30;;;;;;1572259;75;1921;-64
2021/10/30 02:30:25;;;;;;;;;;;22.90;42.40;;;;;;1538534;76;673;-64
2021/10/30 02:32:27;;;;;;;;;;;22.90;42.40;;;;;;1540675;76;759;-64
2021/10/30 02:34:29;;;;;;;;;;;22.90;42.40;;;;;;1560435;76;817;-65
2021/10/30 02:36:31;;;;;;;;;;;22.90;42.50;;;;;;1554909;76;798;-66
2021/10/30 02:38:34;;;;;;;;;;;23.00;42.60;;;;;;1552151;76;1142;-64
2021/10/30 02:40:36;;;;;;;;;;;23.00;42.60;;;;;;1546979;76;703;-64
2021/10/30 02:42:37;;;;;;;;;;;23.10;42.70;;;;;;1551499;76;755;-65
2021/10/30 02:44:39;;;;;;;;;;;23.10;42.70;;;;;;1552175;76;877;-68
2021/10/30 02:46:41;;;;;;;;;;;23.20;42.50;;;;;;1531872;76;729;-65
2021/10/30 02:48:43;;;;;;;;;;;23.20;42.40;;;;;;1544487;76;1943;-65
2021/10/30 02:50:45;;;;;;;;;;;23.20;42.30;;;;;;1549763;76;771;-65
2021/10/30 02:52:47;;;;;;;;;;;23.20;42.30;;;;;;1542073;76;792;-65
2021/10/30 02:54:49;;;;;;;;;;;23.30;42.30;;;;;;1538546;76;721;-65
2021/10/30 02:56:50;;;;;;;;;;;23.30;42.30;;;;;;1547463;75;640;-66
2021/10/30 02:58:52;;;;;;;;;;;23.20;42.20;;;;;;1542482;76;1161;-66
2021/10/30 03:00:54;;;;;;;;;;;23.20;42.40;;;;;;1539785;76;802;-67
2021/10/30 03:02:56;;;;;;;;;;;23.10;42.50;;;;;;1543458;76;842;-65
2021/10/30 03:04:58;;;;;;;;;;;23.10;42.50;;;;;;1538437;76;703;-64
2021/10/30 03:07:00;;;;;;;;;;;23.10;42.50;;;;;;1538189;76;1939;-65
2021/10/30 03:09:02;;;;;;;;;;;23.10;42.60;;;;;;1537873;76;1119;-63
2021/10/30 03:11:04;;;;;;;;;;;23.00;42.40;;;;;;1547326;76;717;-64
2021/10/30 03:13:05;;;;;;;;;;;23.00;42.50;;;;;;1538019;76;713;-64
2021/10/30 03:15:08;;;;;;;;;;;23.00;42.50;;;;;;1538483;76;737;-66
2021/10/30 03:17:10;;;;;;;;;;;23.10;42.60;;;;;;1543347;76;713;-65
2021/10/30 03:19:11;;;;;;;;;;;23.00;42.40;;;;;;1550207;76;1131;-63
2021/10/30 03:21:13;;;;;;;;;;;23.00;42.40;;;;;;1538164;76;687;-63
2021/10/30 03:23:15;;;;;;;;;;;23.10;42.50;;;;;;1537872;76;815;-62
2021/10/30 03:25:17;;;;;;;;;;;23.00;42.30;;;;;;1538236;76;745;-63
2021/10/30 03:27:19;;;;;;;;;;;23.00;42.30;;;;;;1532473;75;1940;-64
2021/10/30 03:29:21;;;;;;;;;;;23.00;42.30;;;;;;1549906;76;1083;-64
2021/10/30 03:31:23;;;;;;;;;;;23.00;42.30;;;;;;1545567;76;804;-65
2021/10/30 03:33:25;;;;;;;;;;;23.10;42.40;;;;;;1538347;76;760;-64
2021/10/30 03:35:27;;;;;;;;;;;23.00;42.30;;;;;;1537927;76;743;-64
2021/10/30 03:37:32;;;;;;;;;;;23.00;42.20;;;;;;1539677;76;837;-66
2021/10/30 03:39:32;;;;;;;;;;;23.00;42.20;;;;;;1552783;76;1829;-64
2021/10/30 03:41:34;;;;;;;;;;;23.10;42.30;;;;;;1547231;76;795;-64
2021/10/30 03:43:36;;;;;;;;;;;23.00;42.20;;;;;;1539598;76;778;-64
2021/10/30 03:45:38;;;;;;;;;;;23.00;42.20;;;;;;1550921;76;774;-64
2021/10/30 03:47:40;;;;;;;;;;;23.10;42.30;;;;;;1530911;76;1960;-64
2021/10/30 03:49:42;;;;;;;;;;;23.00;42.20;;;;;;1538447;76;1067;-64
2021/10/30 03:51:44;;;;;;;;;;;23.00;42.10;;;;;;1538135;77;691;-65
2021/10/30 03:53:46;;;;;;;;;;;23.10;42.20;;;;;;1527301;76;796;-64
2021/10/30 03:55:48;;;;;;;;;;;23.10;42.20;;;;;;1538173;76;850;-66
2021/10/30 03:57:50;;;;;;;;;;;23.10;42.30;;;;;;1533820;76;1158;-63
2021/10/30 03:59:52;;;;;;;;;;;23.00;42.10;;;;;;1538512;76;733;-64
2021/10/30 04:01:54;;;;;;;;;;;23.10;42.20;;;;;;1546805;76;746;-64
2021/10/30 04:03:56;;;;;;;;;;;23.00;42.10;;;;;;1541629;76;766;-61
2021/10/30 04:05:58;;;;;;;;;;;23.10;42.30;;;;;;1538049;76;720;-64
2021/10/30 04:07:59;;;;;;;;;;;23.10;42.30;;;;;;1559764;76;1943;-64
2021/10/30 04:10:01;;;;;;;;;;;23.10;42.20;;;;;;1537117;76;779;-64
2021/10/30 04:12:04;;;;;;;;;;;23.20;42.10;;;;;;1548964;76;670;-65
2021/10/30 04:14:06;;;;;;;;;;;23.30;41.90;;;;;;1538453;76;836;-64
2021/10/30 04:16:08;;;;;;;;;;;23.30;41.80;;;;;;1538471;76;633;-64
2021/10/30 04:18:09;;;;;;;;;;;23.50;41.60;;;;;;1538308;76;1119;-65
2021/10/30 04:20:11;;;;;;;;;;;23.50;41.50;;;;;;1544449;76;790;-66
2021/10/30 04:22:13;;;;;;;;;;;23.40;41.40;;;;;;1538234;76;732;-65
2021/10/30 04:24:15;;;;;;;;;;;23.40;41.50;;;;;;1537894;76;765;-66
2021/10/30 04:26:17;;;;;;;;;;;23.40;41.40;;;;;;1551589;76;729;-63
2021/10/30 04:28:19;;;;;;;;;;;23.40;41.50;;;;;;1552326;76;1948;-64
2021/10/30 04:30:21;;;;;;;;;;;23.40;41.40;;;;;;1542757;76;754;-65
2021/10/30 04:32:23;;;;;;;;;;;23.50;41.50;;;;;;1539509;76;782;-64
2021/10/30 04:35:11;;;;;;;;;;;23.60;41.50;;;;;;1539298;76;673;-64
2021/10/30 04:36:30;;;;;;;;;;;23.60;41.20;;;;;;1533305;76;1077;-65
2021/10/30 04:38:32;;;;;;;;;;;23.60;41.20;;;;;;1547509;76;1091;-65
2021/10/30 04:40:34;;;;;;;;;;;23.70;41.10;;;;;;1538805;76;837;-67
2021/10/30 04:42:36;;;;;;;;;;;23.60;41.00;;;;;;1537218;76;614;-63
2021/10/30 04:44:37;;;;;;;;;;;23.70;41.10;;;;;;1542214;76;735;-63
2021/10/30 04:46:39;;;;;;;;;;;23.60;41.00;;;;;;1551396;76;763;-64
2021/10/30 04:48:41;;;;;;;;;;;23.50;41.10;;;;;;1546475;76;1923;-64
2021/10/30 04:50:43;;;;;;;;;;;23.50;41.30;;;;;;1538456;76;742;-63
2021/10/30 04:52:46;;;;;;;;;;;23.60;41.20;;;;;;1537071;76;744;-66
2021/10/30 04:54:48;;;;;;;;;;;23.60;41.00;;;;;;1538354;77;759;-65
2021/10/30 04:56:49;;;;;;;;;;;23.70;40.90;;;;;;1534119;76;792;-64
2021/10/30 04:58:51;;;;;;;;;;;23.70;40.80;;;;;;1538155;76;1131;-64
2021/10/30 05:00:53;;;;;;;;;;;23.70;40.90;;;;;;1538182;76;851;-64
2021/10/30 05:02:55;;;;;;;;;;;23.70;41.00;;;;;;1538097;76;846;-66
2021/10/30 05:04:57;;;;;;;;;;;23.80;41.00;;;;;;1538136;76;704;-64
2021/10/30 05:06:59;;;;;;;;;;;23.70;40.80;;;;;;1540494;76;800;-64
2021/10/30 05:09:01;;;;;;;;;;;23.70;40.80;;;;;;1537422;76;1947;-67
2021/10/30 05:11:03;;;;;;;;;;;23.70;40.90;;;;;;1540345;76;797;-67
2021/10/30 05:13:05;;;;;;;;;;;23.70;40.90;;;;;;1538166;76;1082;-71
2021/10/30 05:15:07;;;;;;;;;;;23.80;40.90;;;;;;1538102;76;689;-67
2021/10/30 05:17:09;;;;;;;;;;;23.80;40.70;;;;;;1538327;76;708;-68
2021/10/30 05:19:11;;;;;;;;;;;23.80;40.70;;;;;;1540029;76;1182;-65
2021/10/30 05:21:13;;;;;;;;;;;23.80;40.80;;;;;;1540328;76;780;-65
2021/10/30 05:23:15;;;;;;;;;;;23.80;40.70;;;;;;1538245;76;802;-66
2021/10/30 05:25:17;;;;;;;;;;;23.80;40.80;;;;;;1537958;77;873;-67
2021/10/30 05:27:19;;;;;;;;;;;23.80;40.80;;;;;;1537287;76;749;-66
2021/10/30 05:29:20;;;;;;;;;;;23.90;40.70;;;;;;1539028;76;1948;-67
2021/10/30 05:31:22;;;;;;;;;;;23.90;40.80;;;;;;1540356;76;773;-66
2021/10/30 05:33:24;;;;;;;;;;;23.90;40.80;;;;;;1538464;76;883;-67
2021/10/30 05:35:26;;;;;;;;;;;23.90;40.80;;;;;;1534140;76;792;-68
2021/10/30 05:37:28;;;;;;;;;;;23.90;40.80;;;;;;1540213;76;741;-66
2021/10/30 05:39:30;;;;;;;;;;;23.90;40.90;;;;;;1537905;76;1142;-67
2021/10/30 05:41:32;;;;;;;;;;;23.90;40.80;;;;;;1538158;76;763;-70
2021/10/30 05:43:36;;;;;;;;;;;23.80;40.80;;;;;;1540447;76;740;-67
2021/10/30 05:45:39;;;;;;;;;;;23.80;40.80;;;;;;1538322;76;783;-66
2021/10/30 05:47:41;;;;;;;;;;;23.90;40.90;;;;;;1537318;76;1088;-67
2021/10/30 05:49:44;;;;;;;;;;;23.90;40.80;;;;;;1538309;77;1947;-68
2021/10/30 05:51:45;;;;;;;;;;;23.90;40.80;;;;;;1540607;76;909;-65
2021/10/30 05:53:47;;;;;;;;;;;23.90;40.80;;;;;;1536472;76;725;-68
2021/10/30 05:55:49;;;;;;;;;;;23.90;40.80;;;;;;1537814;76;799;-66
2021/10/30 05:57:51;;;;;;;;;;;23.90;40.80;;;;;;1543676;75;1080;-67
2021/10/30 05:59:53;;;;;;;;;;;23.80;40.70;;;;;;1549716;76;668;-72
2021/10/30 06:01:55;;;;;;;;;;;23.90;40.70;;;;;;1542861;76;793;-72
2021/10/30 06:03:57;;;;;;;;;;;23.90;40.60;;;;;;1538192;76;728;-72
2021/10/30 06:05:58;;;;;;;;;;;23.90;40.50;;;;;;1551670;76;793;-71
2021/10/30 06:08:00;;;;;;;;;;;24.00;40.50;;;;;;1537747;76;1949;-72
2021/10/30 06:10:02;;;;;;;;;;;23.90;40.40;;;;;;1538232;76;777;-74
2021/10/30 06:12:04;;;;;;;;;;;24.00;40.30;;;;;;1543210;76;816;-71
2021/10/30 06:14:06;;;;;;;;;;;24.00;40.20;;;;;;1538323;76;745;-71
2021/10/30 06:16:08;;;;;;;;;;;24.00;40.20;;;;;;1536223;76;662;-71
2021/10/30 06:18:10;;;;;;;;;;;23.90;40.50;;;;;;1538268;76;1162;-71
2021/10/30 06:20:12;;;;;;;;;;;23.80;40.80;;;;;;1538103;76;754;-72
2021/10/30 06:22:14;;;;;;;;;;;23.70;41.10;;;;;;1540997;76;941;-70
2021/10/30 06:24:16;;;;;;;;;;;23.70;41.30;;;;;;1535426;76;767;-71
2021/10/30 06:26:20;;;;;;;;;;;23.70;41.50;;;;;;1537603;76;736;-73
2021/10/30 06:28:22;;;;;;;;;;;23.60;41.50;;;;;;1539743;76;1930;-73
2021/10/30 06:30:24;;;;;;;;;;;23.60;41.70;;;;;;1539322;76;805;-72
2021/10/30 06:32:26;;;;;;;;;;;23.60;41.80;;;;;;1538065;76;729;-72
2021/10/30 06:34:28;;;;;;;;;;;23.50;41.90;;;;;;1543439;76;861;-74
2021/10/30 06:36:31;;;;;;;;;;;23.50;42.00;;;;;;1538604;76;731;-72
2021/10/30 06:38:32;;;;;;;;;;;23.40;42.10;;;;;;1538226;76;1139;-75
2021/10/30 06:40:34;;;;;;;;;;;23.30;42.30;;;;;;1538335;76;726;-75
2021/10/30 06:42:36;;;;;;;;;;;23.40;42.40;;;;;;1537951;76;754;-76
2021/10/30 06:44:38;;;;;;;;;;;23.40;42.60;;;;;;1537603;76;741;-75
2021/10/30 06:46:40;;;;;;;;;;;23.30;42.70;;;;;;1541073;76;806;-74
2021/10/30 06:48:42;;;;;;;;;;;23.30;42.90;;;;;;1540818;76;1967;-72
2021/10/30 06:50:44;;;;;;;;;;;23.30;42.90;;;;;;1541139;76;669;-73
2021/10/30 06:52:48;;;;;;;;;;;23.20;42.90;;;;;;1540784;76;750;-74
2021/10/30 06:54:50;;;;;;;;;;;23.30;43.10;;;;;;1535255;76;716;-72
2021/10/30 06:56:52;;;;;;;;;;;23.20;43.10;;;;;;1539967;75;710;-73
2021/10/30 06:58:54;;;;;;;;;;;23.30;43.30;;;;;;1546249;76;1098;-75
2021/10/30 07:00:57;;;;;;;;;;;23.20;43.20;;;;;;1538285;77;767;-72
2021/10/30 07:02:59;;;;;;;;;;;23.20;43.40;;;;;;1537507;76;736;-66
2021/10/30 07:05:01;;;;;;;;;;;23.30;43.60;;;;;;1534205;76;725;-66
2021/10/30 07:07:03;;;;;;;;;;;23.20;43.60;;;;;;1536184;75;715;-66
2021/10/30 07:09:05;;;;;;;;;;;23.20;43.40;;;;;;1538025;75;1936;-67
2021/10/30 07:11:07;;;;;;;;;;;23.30;43.20;;;;;;1524707;75;753;-67
2021/10/30 07:13:09;;;;;;;;;;;23.40;43.00;;;;;;1534149;76;778;-71
2021/10/30 07:15:12;;;;;;;;;;;23.40;42.80;;;;;;1537642;76;676;-71
2021/10/30 07:17:13;;;;;;;;;;;23.50;42.70;;;;;;1525217;76;762;-71
2021/10/30 07:19:15;;;;;;;;;;;23.60;42.30;;;;;;1535111;77;1263;-69
2021/10/30 07:21:17;;;;;;;;;;;23.60;42.00;;;;;;1532270;76;778;-71
2021/10/30 07:23:19;;;;;;;;;;;23.70;41.80;;;;;;1535187;76;714;-71
2021/10/30 07:25:21;;;;;;;;;;;23.70;41.60;;;;;;1531091;76;661;-72
2021/10/30 07:27:23;;;;;;;;;;;23.80;41.50;;;;;;1532434;76;720;-71
2021/10/30 07:29:25;;;;;;;;;;;23.70;41.40;;;;;;1528789;76;1956;-73
2021/10/30 07:31:27;;;;;;;;;;;23.70;41.50;;;;;;1533941;76;831;-71
2021/10/30 07:33:29;;;;;;;;;;;23.70;41.60;;;;;;1524234;76;828;-71
2021/10/30 07:35:31;;;;;;;;;;;23.60;41.50;;;;;;1528813;76;733;-71
2021/10/30 07:37:33;;;;;;;;;;;23.60;41.70;;;;;;1531614;76;788;-71
2021/10/30 07:39:35;;;;;;;;;;;23.50;41.70;;;;;;1519171;76;1109;-71
2021/10/30 07:41:36;;;;;;;;;;;23.60;41.70;;;;;;1537635;76;740;-70
2021/10/30 07:43:38;;;;;;;;;;;23.60;41.70;;;;;;1520387;76;772;-71
2021/10/30 07:45:40;;;;;;;;;;;23.50;41.60;;;;;;1527668;76;795;-72
2021/10/30 07:47:42;;;;;;;;;;;23.60;41.60;;;;;;1526496;76;805;-72
2021/10/30 07:49:44;;;;;;;;;;;23.60;41.60;;;;;;1528691;76;1944;-71
2021/10/30 07:51:46;;;;;;;;;;;23.50;41.50;;;;;;1532780;76;795;-72
2021/10/30 07:53:48;;;;;;;;;;;23.60;41.60;;;;;;1528248;76;712;-71
2021/10/30 07:55:50;;;;;;;;;;;23.60;41.60;;;;;;1528187;76;697;-71
2021/10/30 07:57:52;;;;;;;;;;;23.60;41.50;;;;;;1527392;76;1143;-71
2021/10/30 07:59:54;;;;;;;;;;;23.60;41.50;;;;;;1533437;76;684;-71
2021/10/30 08:01:56;;;;;;;;;;;23.60;41.40;;;;;;1537262;76;661;-71
2021/10/30 08:03:58;;;;;;;;;;;23.60;41.50;;;;;;1535256;76;646;-72
2021/10/30 08:06:00;;;;;;;;;;;23.60;41.30;;;;;;1535829;75;906;-73
2021/10/30 08:08:01;;;;;;;;;;;23.70;41.30;;;;;;1537021;75;1167;-70
2021/10/30 08:10:04;;;;;;;;;;;23.70;41.00;;;;;;1537617;76;1935;-67
2021/10/30 08:12:06;;;;;;;;;;;23.70;40.90;;;;;;1534937;76;606;-70
2021/10/30 08:14:08;;;;;;;;;;;23.70;40.50;;;;;;1524959;76;806;-70
2021/10/30 08:16:10;;;;;;;;;;;23.70;40.50;;;;;;1534557;76;787;-70
2021/10/30 08:18:15;;;;;;;;;;;23.70;40.30;;;;;;1533005;72;1882;31
2021/10/30 08:20:17;;;;;;;;;;;23.70;40.40;;;;;;1572700;75;604;-67
2021/10/30 08:22:18;;;;;;;;;;;23.60;40.60;;;;;;1569390;75;671;-66
2021/10/30 08:24:20;;;;;;;;;;;23.60;40.70;;;;;;1584581;75;746;-63
2021/10/30 08:26:22;;;;;;;;;;;23.60;40.80;;;;;;1572467;74;749;-65
2021/10/30 08:28:24;;;;;;;;;;;23.60;41.00;;;;;;1573928;75;1202;-64
2021/10/30 08:30:26;;;;;;;;;;;23.50;41.00;;;;;;1579397;75;1942;-64
2021/10/30 08:32:28;;;;;;;;;;;23.50;41.30;;;;;;1579690;75;768;-64
2021/10/30 08:34:30;;;;;;;;;;;23.40;41.40;;;;;;1579145;75;679;-72
2021/10/30 08:36:31;;;;;;;;;;;23.50;41.80;;;;;;1576509;74;747;-72
2021/10/30 08:38:34;;;;;;;;;;;23.50;41.10;;;;;;1568773;74;1092;-69
2021/10/30 08:40:36;;;;;;;;;;;23.50;40.70;;;;;;1570176;75;758;-71
2021/10/30 08:42:39;;;;;;;;;;;23.50;39.70;;;;;;1568468;75;718;-71
2021/10/30 08:44:41;;;;;;;;;;;23.50;39.40;;;;;;1577436;73;710;-70
2021/10/30 08:46:42;;;;;;;;;;;23.50;38.60;;;;;;1576194;73;719;-71
2021/10/30 08:48:45;;;;;;;;;;;23.40;38.40;;;;;;1576316;73;1110;-70
2021/10/30 08:50:48;;;;;;;;;;;23.50;38.90;;;;;;1576788;73;1982;-71
2021/10/30 08:52:49;;;;;;;;;;;23.50;38.60;;;;;;1575492;73;681;-70
2021/10/30 08:54:51;;;;;;;;;;;23.40;38.20;;;;;;1577976;73;764;-70
2021/10/30 08:56:53;;;;;;;;;;;23.40;38.70;;;;;;1579426;73;803;-71
2021/10/30 08:58:56;;;;;;;;;;;23.30;38.70;;;;;;1576708;73;1187;-70
2021/10/30 09:00:58;;;;;;;;;;;23.50;39.00;;;;;;1574704;73;765;-71
2021/10/30 09:03:01;;;;;;;;;;;23.40;38.70;;;;;;1577521;75;822;-71
2021/10/30 09:05:16;;;;;;;;;;;23.40;38.90;;;;;;1569991;74;764;-71
2021/10/30 09:07:18;;;;;;;;;;;23.40;39.10;;;;;;1576727;73;750;-70
2021/10/30 09:09:20;;;;;;;;;;;23.50;39.10;;;;;;1553404;75;1948;-70
2021/10/30 09:11:21;;;;;;;;;;;23.40;39.00;;;;;;1579758;75;734;-65
2021/10/30 09:13:25;;;;;;;;;;;23.50;38.40;;;;;;1582385;75;1108;-67
2021/10/30 09:15:30;;;;;;;;;;;23.50;38.50;;;;;;1578433;75;1169;-68
2021/10/30 09:17:32;;;;;;;;;;;23.50;38.20;;;;;;1578839;75;725;-64
2021/10/30 09:19:34;;;;;;;;;;;23.50;37.70;;;;;;1576066;75;1177;-66
2021/10/30 09:21:36;;;;;;;;;;;23.50;37.60;;;;;;1579702;75;781;-67
2021/10/30 09:23:40;;;;;;;;;;;23.40;37.20;;;;;;1579089;73;652;-68
2021/10/30 09:25:54;;;;;;;;;;;23.50;37.40;;;;;;1578839;75;965;-66
2021/10/30 09:28:01;;;;;;;;;;;23.50;37.70;;;;;;1585131;75;1704;-66
2021/10/30 09:30:02;;;;;;;;;;;23.50;37.70;;;;;;1576170;75;1937;-66
2021/10/30 09:32:12;;;;;;;;;;;23.40;37.50;;;;;;1579592;75;795;-66
2021/10/30 09:34:16;;;;;;;;;;;23.40;37.40;;;;;;1583692;74;694;-66
2021/10/30 09:36:18;;;;;;;;;;;23.40;37.20;;;;;;1581820;75;1870;-68
2021/10/30 09:38:33;;;;;;;;;;;23.40;37.10;;;;;;1579218;75;1159;-66
2021/10/30 09:40:35;;;;;;;;;;;23.40;36.80;;;;;;1580448;75;643;-64
2021/10/30 09:42:37;;;;;;;;;;;23.40;36.00;;;;;;1580274;74;784;-66
2021/10/30 09:44:39;;;;;;;;;;;23.40;34.50;;;;;;1575809;75;758;-66
2021/10/30 09:46:42;;;;;;;;;;;23.30;34.40;;;;;;1578198;73;698;-66
2021/10/30 09:48:44;;;;;;;;;;;23.20;34.80;;;;;;1574420;73;1809;-67
2021/10/30 09:50:46;;;;;;;;;;;23.30;35.20;;;;;;1579947;73;1941;-67
2021/10/30 09:52:48;;;;;;;;;;;23.20;35.20;;;;;;1570877;73;1151;-67
2021/10/30 09:54:50;;;;;;;;;;;23.20;35.40;;;;;;1578099;73;840;-67
2021/10/30 09:56:52;;;;;;;;;;;23.20;35.50;;;;;;1577768;73;761;-66
2021/10/30 09:58:54;;;;;;;;;;;23.20;35.50;;;;;;1580380;73;1147;-66
2021/10/30 10:00:57;;;;;;;;;;;23.20;35.40;;;;;;1577391;73;703;-66
2021/10/30 10:03:00;;;;;;;;;;;23.20;35.40;;;;;;1579141;73;877;-65
2021/10/30 10:05:03;;;;;;;;;;;23.20;35.50;;;;;;1576430;73;781;-65
2021/10/30 10:07:06;;;;;;;;;;;23.20;35.70;;;;;;1579381;73;797;-63
2021/10/30 10:09:07;;;;;;;;;;;23.20;35.70;;;;;;1577161;73;1150;-65
2021/10/30 10:11:11;;;;;;;;;;;23.20;35.80;;;;;;1579579;73;1981;-66
2021/10/30 10:13:13;;;;;;;;;;;23.20;35.90;;;;;;1578041;73;1701;-65
2021/10/30 10:15:15;;;;;;;;;;;23.30;36.00;;;;;;1579942;73;662;-65
2021/10/30 10:17:19;;;;;;;;;;;23.20;36.00;;;;;;1578364;73;750;-65
2021/10/30 10:19:21;;;;;;;;;;;23.20;36.00;;;;;;1579039;73;1174;-65
2021/10/30 10:21:32;;;;;;;;;;;23.30;36.10;;;;;;1575136;73;741;-65
2021/10/30 10:23:34;;;;;;;;;;;23.30;36.10;;;;;;1579474;73;1967;-65
2021/10/30 10:25:36;;;;;;;;;;;23.30;36.10;;;;;;1579647;73;796;-65
2021/10/30 10:27:38;;;;;;;;;;;23.30;36.10;;;;;;1579406;73;765;-66
2021/10/30 10:29:43;;;;;;;;;;;23.30;36.10;;;;;;1579214;73;1942;-65
2021/10/30 10:31:50;;;;;;;;;;;23.30;36.20;;;;;;1579486;73;1119;-65
2021/10/30 10:34:07;;;;;;;;;;;23.30;36.20;;;;;;1579233;73;747;-65
2021/10/30 10:36:17;;;;;;;;;;;23.40;36.10;;;;;;1578303;73;708;-65
2021/10/30 10:38:19;;;;;;;;;;;23.30;36.20;;;;;;1578839;73;1147;-67
2021/10/30 10:40:27;;;;;;;;;;;23.30;36.30;;;;;;1579784;73;775;-65
2021/10/30 10:42:36;;;;;;;;;;;23.30;36.20;;;;;;1576591;73;751;-65
2021/10/30 10:44:42;;;;;;;;;;;23.30;36.30;;;;;;1579681;73;736;-65
2021/10/30 10:46:51;;;;;;;;;;;23.30;36.20;;;;;;1576047;73;786;-65
2021/10/30 10:48:53;;;;;;;;;;;23.30;36.30;;;;;;1579891;73;1155;-65
2021/10/30 10:50:54;;;;;;;;;;;23.30;36.30;;;;;;1579705;73;1937;-65
2021/10/30 10:53:09;;;;;;;;;;;23.30;36.30;;;;;;1579886;73;753;-66
2021/10/30 10:55:11;;;;;;;;;;;23.30;36.30;;;;;;1576505;74;888;-67
2021/10/30 10:57:14;;;;;;;;;;;23.30;36.40;;;;;;1579801;73;705;-66
2021/10/30 10:59:17;;;;;;;;;;;23.30;36.50;;;;;;1569308;73;1182;-67
2021/10/30 11:01:19;;;;;;;;;;;23.30;36.50;;;;;;1579791;73;722;-66
2021/10/30 11:03:27;;;;;;;;;;;23.30;36.50;;;;;;1579081;73;740;-66
2021/10/30 11:05:30;;;;;;;;;;;23.40;36.60;;;;;;1577168;73;785;-66
2021/10/30 11:07:31;;;;;;;;;;;23.30;36.60;;;;;;1569946;73;824;-66
2021/10/30 11:09:35;;;;;;;;;;;23.40;36.70;;;;;;1575372;73;1128;-66
2021/10/30 11:11:37;;;;;;;;;;;23.30;36.70;;;;;;1575383;75;1938;-66
2021/10/30 11:13:59;;;;;;;;;;;23.30;36.80;;;;;;1579044;73;782;-68
2021/10/30 11:16:01;;;;;;;;;;;23.40;36.80;;;;;;1578009;73;835;-68
2021/10/30 11:18:10;;;;;;;;;;;23.30;36.80;;;;;;1550721;75;820;-66
2021/10/30 11:20:14;;;;;;;;;;;23.30;36.90;;;;;;1577272;73;1742;-66
2021/10/30 11:22:20;;;;;;;;;;;23.30;36.90;;;;;;1568664;75;1200;-64
2021/10/30 11:24:22;;;;;;;;;;;23.30;37.00;;;;;;1571369;74;1648;-65
2021/10/30 11:26:31;;;;;;;;;;;23.30;37.00;;;;;;1573439;75;1077;-65
2021/10/30 11:28:33;;;;;;;;;;;23.20;37.00;;;;;;1575241;75;1858;-65
2021/10/30 11:30:39;;;;;;;;;;;23.30;37.10;;;;;;1568806;75;1922;-65
2021/10/30 11:32:40;;;;;;;;;;;23.30;37.10;;;;;;1575401;73;678;-65
2021/10/30 11:34:44;;;;;;;;;;;23.20;37.10;;;;;;1579554;73;806;-65
2021/10/30 11:36:46;;;;;;;;;;;23.20;37.10;;;;;;1579204;73;1912;-65
2021/10/30 11:38:50;;;;;;;;;;;23.20;37.10;;;;;;1579356;73;1150;-65
2021/10/30 11:40:58;;;;;;;;;;;23.30;37.30;;;;;;1577364;73;744;-65
2021/10/30 11:43:00;;;;;;;;;;;23.20;37.20;;;;;;1579908;73;726;-65
2021/10/30 11:45:02;;;;;;;;;;;23.20;37.20;;;;;;1574179;73;761;-65
2021/10/30 11:47:04;;;;;;;;;;;23.20;37.20;;;;;;1578891;73;593;-65
2021/10/30 11:49:06;;;;;;;;;;;23.20;37.30;;;;;;1579441;74;1167;-65
2021/10/30 11:51:09;;;;;;;;;;;23.20;37.20;;;;;;1575737;73;1918;-65
2021/10/30 11:53:10;;;;;;;;;;;23.20;37.30;;;;;;1574288;73;730;-65
2021/10/30 11:55:12;;;;;;;;;;;23.10;37.30;;;;;;1579326;73;613;-65
2021/10/30 11:57:14;;;;;;;;;;;23.20;37.30;;;;;;1578810;73;810;-65
2021/10/30 11:59:16;;;;;;;;;;;23.20;37.30;;;;;;1573795;73;1151;-64
2021/10/30 12:01:27;;;;;;;;;;;23.20;37.30;;;;;;1575941;75;751;-65
2021/10/30 12:03:35;;;;;;;;;;;23.10;37.40;;;;;;1579076;73;847;-66
2021/10/30 12:05:39;;;;;;;;;;;23.10;37.30;;;;;;1578886;74;817;-65
2021/10/30 12:07:41;;;;;;;;;;;23.20;37.40;;;;;;1575257;73;773;-65
2021/10/30 12:09:45;;;;;;;;;;;23.20;37.40;;;;;;1553447;75;1359;-65
2021/10/30 12:11:47;;;;;;;;;;;23.20;37.40;;;;;;1572196;73;1935;-67